UAL4793 KCOS-KDEN
Flight info
| Callsign | UAL4793 |
|---|---|
| Flight time | 0h 18m |
| Altitude | 16000 |
| Route | ADANE V389 LUFSE/N0301F150 JEFEL/N0299F140 |
| Aircraft | E170/M-SDE3GILORVW/S |
Departure
| Time | 2026-04-25 22:50 |
|---|---|
| Airport | City of Colorado Springs Municipal Airport (KCOS) |
Arrival
| Time | 2026-04-25 23:08 |
|---|---|
| Airport | Denver International Airport (KDEN) |
| Time | Latitude | Longitude | Altitude | Speed | Heading |
|---|---|---|---|---|---|
| 2026-04-25 22:14 | 38.79936 | -104.70150 | 6190 ft | 0 kts | 127° |
| 2026-04-25 22:35 | 38.79950 | -104.70174 | 6192 ft | 0 kts | 127° |
| 2026-04-25 22:35 | 38.79982 | -104.70229 | 6192 ft | 0 kts | 127° |
| 2026-04-25 22:35 | 38.79993 | -104.70247 | 6191 ft | 0 kts | 127° |
| 2026-04-25 22:38 | 38.79993 | -104.70246 | 6191 ft | 0 kts | 125° |
| 2026-04-25 22:38 | 38.79992 | -104.70244 | 6191 ft | 0 kts | 95° |
| 2026-04-25 22:39 | 38.79995 | -104.70240 | 6191 ft | 1 kts | 34° |
| 2026-04-25 22:39 | 38.80036 | -104.70244 | 6191 ft | 12 kts | 0° |
| 2026-04-25 22:39 | 38.80077 | -104.70156 | 6191 ft | 14 kts | 90° |
| 2026-04-25 22:39 | 38.80076 | -104.70033 | 6191 ft | 14 kts | 90° |
| 2026-04-25 22:40 | 38.80075 | -104.69912 | 6191 ft | 9 kts | 90° |
| 2026-04-25 22:40 | 38.80075 | -104.69882 | 6191 ft | 5 kts | 89° |
| 2026-04-25 22:40 | 38.80076 | -104.69835 | 6191 ft | 6 kts | 90° |
| 2026-04-25 22:40 | 38.80078 | -104.69778 | 6191 ft | 7 kts | 72° |
| 2026-04-25 22:41 | 38.80114 | -104.69735 | 6191 ft | 10 kts | 26° |
| 2026-04-25 22:41 | 38.80186 | -104.69725 | 6191 ft | 11 kts | 359° |
| 2026-04-25 22:41 | 38.80284 | -104.69725 | 6191 ft | 17 kts | 0° |
| 2026-04-25 22:41 | 38.80359 | -104.69687 | 6191 ft | 13 kts | 72° |
| 2026-04-25 22:42 | 38.80362 | -104.69414 | 6192 ft | 41 kts | 91° |
| 2026-04-25 22:42 | 38.80360 | -104.68991 | 6192 ft | 51 kts | 90° |
| 2026-04-25 22:42 | 38.80411 | -104.68788 | 6194 ft | 17 kts | 7° |
| 2026-04-25 22:42 | 38.80558 | -104.68787 | 6194 ft | 24 kts | 360° |
| 2026-04-25 22:43 | 38.80737 | -104.68789 | 6193 ft | 27 kts | 0° |
| 2026-04-25 22:43 | 38.80942 | -104.68787 | 6193 ft | 31 kts | 359° |
| 2026-04-25 22:43 | 38.81155 | -104.68786 | 6194 ft | 30 kts | 0° |
| 2026-04-25 22:43 | 38.81356 | -104.68789 | 6194 ft | 28 kts | 358° |
| 2026-04-25 22:44 | 38.81508 | -104.68788 | 6194 ft | 20 kts | 1° |
| 2026-04-25 22:44 | 38.81588 | -104.68762 | 6194 ft | 5 kts | 46° |
| 2026-04-25 22:44 | 38.81599 | -104.68737 | 6195 ft | 6 kts | 85° |
| 2026-04-25 22:44 | 38.81600 | -104.68715 | 6197 ft | 5 kts | 90° |
| 2026-04-25 22:45 | 38.81599 | -104.68692 | 6199 ft | 0 kts | 90° |
| 2026-04-25 22:48 | 38.81599 | -104.68636 | 6202 ft | 9 kts | 90° |
| 2026-04-25 22:48 | 38.81569 | -104.68574 | 6203 ft | 12 kts | 166° |
| 2026-04-25 22:48 | 38.81551 | -104.68572 | 6203 ft | 0 kts | 180° |
| 2026-04-25 22:49 | 38.81549 | -104.68572 | 6203 ft | 1 kts | 180° |
| 2026-04-25 22:49 | 38.81540 | -104.68572 | 6203 ft | 0 kts | 181° |
| 2026-04-25 22:49 | 38.81506 | -104.68573 | 6203 ft | 27 kts | 181° |
| 2026-04-25 22:49 | 38.81053 | -104.68576 | 6199 ft | 102 kts | 180° |
| 2026-04-25 22:50 | 38.80465 | -104.68576 | 6202 ft | 147 kts | 181° |
| 2026-04-25 22:50 | 38.78911 | -104.68531 | 6839 ft | 177 kts | 179° |
| 2026-04-25 22:50 | 38.78064 | -104.68485 | 7384 ft | 188 kts | 179° |
| 2026-04-25 22:50 | 38.76649 | -104.68350 | 7886 ft | 218 kts | 165° |
| 2026-04-25 22:51 | 38.75350 | -104.67224 | 8579 ft | 236 kts | 127° |
| 2026-04-25 22:51 | 38.74705 | -104.65291 | 9537 ft | 239 kts | 106° |
| 2026-04-25 22:51 | 38.74210 | -104.63183 | 10115 ft | 261 kts | 107° |
| 2026-04-25 22:51 | 38.73652 | -104.60876 | 10445 ft | 268 kts | 107° |
| 2026-04-25 22:52 | 38.73142 | -104.58756 | 11691 ft | 244 kts | 107° |
| 2026-04-25 22:52 | 38.72640 | -104.56665 | 12234 ft | 247 kts | 107° |
| 2026-04-25 22:52 | 38.72134 | -104.54557 | 12752 ft | 249 kts | 107° |
| 2026-04-25 22:52 | 38.71949 | -104.52367 | 12805 ft | 263 kts | 78° |
| 2026-04-25 22:53 | 38.72834 | -104.50134 | 12836 ft | 306 kts | 47° |
| 2026-04-25 22:53 | 38.74679 | -104.48563 | 13050 ft | 329 kts | 21° |
| 2026-04-25 22:53 | 38.76892 | -104.47799 | 13142 ft | 331 kts | 11° |
| 2026-04-25 22:53 | 38.79158 | -104.47155 | 13175 ft | 336 kts | 12° |
| 2026-04-25 22:54 | 38.81416 | -104.46465 | 13169 ft | 341 kts | 13° |
| 2026-04-25 22:54 | 38.83767 | -104.45727 | 13154 ft | 346 kts | 13° |
| 2026-04-25 22:54 | 38.86084 | -104.44987 | 13128 ft | 350 kts | 13° |
| 2026-04-25 22:54 | 38.88485 | -104.44204 | 13114 ft | 353 kts | 14° |
| 2026-04-25 22:55 | 38.90895 | -104.43518 | 13108 ft | 358 kts | 9° |
| 2026-04-25 22:55 | 38.93389 | -104.43081 | 13111 ft | 366 kts | 6° |
| 2026-04-25 22:55 | 38.95937 | -104.42674 | 13112 ft | 372 kts | 6° |
| 2026-04-25 22:55 | 38.98495 | -104.42257 | 13112 ft | 378 kts | 7° |
| 2026-04-25 22:56 | 39.01098 | -104.41687 | 13113 ft | 381 kts | 7° |
| 2026-04-25 22:56 | 39.03748 | -104.41778 | 13092 ft | 384 kts | 347° |
| 2026-04-25 22:56 | 39.06289 | -104.42864 | 13107 ft | 386 kts | 338° |
| 2026-04-25 22:56 | 39.08748 | -104.44146 | 13094 ft | 372 kts | 337° |
| 2026-04-25 22:57 | 39.11102 | -104.45376 | 13075 ft | 361 kts | 337° |
| 2026-04-25 22:57 | 39.13408 | -104.46582 | 13067 ft | 355 kts | 337° |
| 2026-04-25 22:57 | 39.15643 | -104.47749 | 13055 ft | 337 kts | 337° |
| 2026-04-25 22:57 | 39.17766 | -104.48839 | 12993 ft | 321 kts | 338° |
| 2026-04-25 22:58 | 39.19861 | -104.49916 | 11782 ft | 330 kts | 337° |
| 2026-04-25 22:58 | 39.21940 | -104.50997 | 10819 ft | 319 kts | 337° |
| 2026-04-25 22:58 | 39.23952 | -104.52044 | 10128 ft | 309 kts | 337° |
| 2026-04-25 22:58 | 39.25915 | -104.53066 | 9966 ft | 296 kts | 337° |
| 2026-04-25 22:59 | 39.27810 | -104.54049 | 9566 ft | 292 kts | 337° |
| 2026-04-25 22:59 | 39.29689 | -104.55024 | 9141 ft | 290 kts | 337° |
| 2026-04-25 22:59 | 39.31522 | -104.55975 | 9037 ft | 276 kts | 337° |
| 2026-04-25 22:59 | 39.33273 | -104.56881 | 9037 ft | 269 kts | 337° |
| 2026-04-25 23:00 | 39.35022 | -104.57783 | 9033 ft | 276 kts | 337° |
| 2026-04-25 23:00 | 39.36883 | -104.58591 | 9082 ft | 289 kts | 346° |
| 2026-04-25 23:00 | 39.38892 | -104.59136 | 9078 ft | 295 kts | 348° |
| 2026-04-25 23:00 | 39.40884 | -104.59664 | 9075 ft | 289 kts | 347° |
| 2026-04-25 23:01 | 39.42828 | -104.60187 | 9064 ft | 283 kts | 347° |
| 2026-04-25 23:01 | 39.44735 | -104.60696 | 9058 ft | 277 kts | 347° |
| 2026-04-25 23:01 | 39.46613 | -104.61194 | 9042 ft | 273 kts | 347° |
| 2026-04-25 23:01 | 39.48464 | -104.61685 | 9031 ft | 271 kts | 347° |
| 2026-04-25 23:02 | 39.50313 | -104.62177 | 9042 ft | 271 kts | 347° |
| 2026-04-25 23:02 | 39.52162 | -104.62672 | 9060 ft | 272 kts | 347° |
| 2026-04-25 23:02 | 39.54013 | -104.63163 | 9064 ft | 272 kts | 347° |
| 2026-04-25 23:02 | 39.55867 | -104.63632 | 9056 ft | 272 kts | 352° |
| 2026-04-25 23:03 | 39.57755 | -104.63770 | 9052 ft | 273 kts | 358° |
| 2026-04-25 23:03 | 39.59710 | -104.63840 | 8372 ft | 288 kts | 357° |
| 2026-04-25 23:03 | 39.61667 | -104.63915 | 8275 ft | 276 kts | 357° |
| 2026-04-25 23:03 | 39.63560 | -104.63985 | 8101 ft | 269 kts | 358° |
| 2026-04-25 23:04 | 39.65401 | -104.64048 | 8041 ft | 259 kts | 358° |
| 2026-04-25 23:04 | 39.67166 | -104.64113 | 8009 ft | 249 kts | 357° |
| 2026-04-25 23:04 | 39.68857 | -104.64180 | 7995 ft | 236 kts | 357° |
| 2026-04-25 23:04 | 39.70394 | -104.64234 | 8027 ft | 203 kts | 357° |
| 2026-04-25 23:05 | 39.71694 | -104.64274 | 8015 ft | 171 kts | 357° |
| 2026-04-25 23:05 | 39.72768 | -104.64292 | 7977 ft | 141 kts | 358° |
| 2026-04-25 23:05 | 39.73763 | -104.64286 | 7936 ft | 147 kts | 359° |
| 2026-04-25 23:05 | 39.74829 | -104.64268 | 7719 ft | 159 kts | 359° |
| 2026-04-25 23:06 | 39.75953 | -104.64241 | 7455 ft | 162 kts | 0° |
| 2026-04-25 23:06 | 39.77089 | -104.64218 | 7133 ft | 164 kts | 359° |
| 2026-04-25 23:06 | 39.78199 | -104.64217 | 6875 ft | 157 kts | 358° |
| 2026-04-25 23:06 | 39.79284 | -104.64173 | 6554 ft | 154 kts | 1° |
| 2026-04-25 23:07 | 39.80343 | -104.64202 | 6203 ft | 153 kts | 355° |
| 2026-04-25 23:07 | 39.81406 | -104.64226 | 5880 ft | 150 kts | 2° |
| 2026-04-25 23:07 | 39.82430 | -104.64186 | 5618 ft | 144 kts | 359° |
| 2026-04-25 23:07 | 39.83412 | -104.64170 | 5382 ft | 136 kts | 358° |
| 2026-04-25 23:08 | 39.84233 | -104.64161 | 5366 ft | 95 kts | 0° |
| 2026-04-25 23:08 | 39.84787 | -104.64154 | 5357 ft | 66 kts | 1° |
| 2026-04-25 23:08 | 39.85214 | -104.64148 | 5348 ft | 58 kts | 1° |
| 2026-04-25 23:08 | 39.85578 | -104.64211 | 5351 ft | 42 kts | 334° |
| 2026-04-25 23:09 | 39.85747 | -104.64333 | 5350 ft | 26 kts | 332° |
| 2026-04-25 23:09 | 39.85921 | -104.64354 | 5345 ft | 26 kts | 359° |
| 2026-04-25 23:09 | 39.86001 | -104.64354 | 5342 ft | 0 kts | 0° |
| 2026-04-25 23:11 | 39.86002 | -104.64354 | 5342 ft | 0 kts | 0° |
| 2026-04-25 23:12 | 39.86003 | -104.64354 | 5342 ft | 0 kts | 0° |
| 2026-04-25 23:12 | 39.86009 | -104.64354 | 5342 ft | 2 kts | 360° |
| 2026-04-25 23:12 | 39.86026 | -104.64354 | 5342 ft | 3 kts | 0° |
| 2026-04-25 23:12 | 39.86053 | -104.64354 | 5342 ft | 4 kts | 1° |
| 2026-04-25 23:13 | 39.86091 | -104.64353 | 5342 ft | 7 kts | 1° |
| 2026-04-25 23:13 | 39.86185 | -104.64351 | 5340 ft | 19 kts | 1° |
| 2026-04-25 23:13 | 39.86332 | -104.64350 | 5334 ft | 23 kts | 360° |
| 2026-04-25 23:13 | 39.86476 | -104.64365 | 5334 ft | 8 kts | 309° |
| 2026-04-25 23:14 | 39.86488 | -104.64492 | 5339 ft | 31 kts | 271° |
| 2026-04-25 23:14 | 39.86489 | -104.64803 | 5348 ft | 43 kts | 270° |
| 2026-04-25 23:14 | 39.86494 | -104.65255 | 5355 ft | 56 kts | 270° |
| 2026-04-25 23:14 | 39.86497 | -104.65762 | 5366 ft | 48 kts | 271° |
| 2026-04-25 23:15 | 39.86498 | -104.66027 | 5376 ft | 3 kts | 270° |
| 2026-04-25 23:15 | 39.86499 | -104.66071 | 5377 ft | 11 kts | 270° |